Time;durP1;ratioP1;P1;durP2;ratioP2;P2;SDS_P1;SDS_P2;PMS_P1;PMS_P2;Temp;Humidity;BMP_temperature;BMP_pressure;BME280_temperature;BME280_humidity;BME280_pressure;Samples;Min_cycle;Max_cycle;Signal;HPM_P1;HPM_P2
2022/02/16 00:01:01;;;;;;;43.15;25.73;;;;;;;7.86;57.69;99706.47;5073430;28;20044;-74
2022/02/16 00:03:29;;;;;;;50.80;28.42;;;;;;;7.78;57.88;99700.91;5067685;28;20048;-74
2022/02/16 00:05:57;;;;;;;45.20;27.48;;;;;;;7.72;58.00;99691.63;5082049;28;20511;-72
2022/02/16 00:08:25;;;;;;;46.05;27.80;;;;;;;7.63;58.11;99692.28;5082385;28;20044;-76
2022/02/16 00:10:52;;;;;;;43.20;26.40;;;;;;;7.55;58.19;99698.06;5066555;28;20044;-71
2022/02/16 00:13:19;;;;;;;44.75;26.80;;;;;;;7.47;58.23;99680.22;5083897;28;20052;-73
2022/02/16 00:15:47;;;;;;;49.15;25.65;;;;;;;7.40;58.19;99678.97;5076875;28;20152;-73
2022/02/16 00:18:14;;;;;;;52.38;29.30;;;;;;;7.34;58.48;99681.97;5069775;28;20089;-73
2022/02/16 00:20:42;;;;;;;45.67;27.15;;;;;;;7.29;58.57;99681.44;5085230;28;20066;-74
2022/02/16 00:23:10;;;;;;;42.20;27.88;;;;;;;7.24;58.58;99678.31;5086929;28;20048;-76
2022/02/16 00:25:37;;;;;;;43.08;25.27;;;;;;;7.22;58.68;99685.44;5069225;28;20056;-74
2022/02/16 00:28:04;;;;;;;42.45;24.48;;;;;;;7.17;58.69;99677.06;5094344;28;20069;-74
2022/02/16 00:30:32;;;;;;;47.50;25.35;;;;;;;7.12;58.76;99681.78;5106514;28;20718;-74
2022/02/16 00:32:59;;;;;;;45.92;25.10;;;;;;;7.10;58.85;99670.53;5093591;28;20036;-74
2022/02/16 00:35:26;;;;;;;41.60;25.58;;;;;;;7.07;58.83;99674.19;5087286;28;20138;-74
2022/02/16 00:37:53;;;;;;;44.92;25.35;;;;;;;7.06;58.72;99675.16;5105387;28;20152;-75
2022/02/16 00:40:21;;;;;;;46.22;26.25;;;;;;;7.02;58.78;99671.91;5107070;28;20077;-75
2022/02/16 00:42:48;;;;;;;41.83;25.58;;;;;;;7.01;58.76;99669.38;5107201;28;20484;-72
2022/02/16 00:45:15;;;;;;;39.97;26.70;;;;;;;6.96;58.80;99655.69;5094208;28;20059;-74
2022/02/16 00:47:42;;;;;;;44.50;25.67;;;;;;;6.92;58.82;99656.88;5088049;28;20048;-73
2022/02/16 00:50:10;;;;;;;39.58;23.48;;;;;;;6.85;59.05;99653.78;5105994;28;20054;-72
2022/02/16 00:52:37;;;;;;;46.10;25.58;;;;;;;6.79;59.08;99659.44;5101476;28;20039;-72
2022/02/16 00:55:04;;;;;;;43.63;25.25;;;;;;;6.72;59.24;99656.41;5107808;28;20050;-74
2022/02/16 00:57:33;;;;;;;50.67;27.77;;;;;;;6.65;59.37;99660.38;5088077;28;20177;-75
2022/02/16 01:00:00;;;;;;;39.85;23.63;;;;;;;6.59;59.45;99652.88;5101978;28;20071;-75
2022/02/16 01:02:28;;;;;;;46.13;26.02;;;;;;;6.53;59.58;99655.91;5097124;28;20058;-73
2022/02/16 01:04:55;;;;;;;50.47;27.98;;;;;;;6.46;59.63;99661.56;5104782;28;20096;-73
2022/02/16 01:07:22;;;;;;;43.20;26.23;;;;;;;6.41;59.67;99652.28;5099180;28;20036;-72
2022/02/16 01:09:49;;;;;;;50.70;28.42;;;;;;;6.37;59.87;99650.81;5091987;28;20563;-74
2022/02/16 01:12:16;;;;;;;44.47;25.92;;;;;;;6.32;59.80;99651.97;5101103;28;20040;-72
2022/02/16 01:14:44;;;;;;;45.47;24.00;;;;;;;6.29;59.93;99651.31;5085792;28;20131;-73
2022/02/16 01:17:11;;;;;;;39.45;26.00;;;;;;;6.28;59.96;99647.88;5097171;28;20182;-72
2022/02/16 01:19:38;;;;;;;40.25;23.30;;;;;;;6.26;59.97;99636.59;5100396;28;20043;-72
2022/02/16 01:22:05;;;;;;;35.70;22.70;;;;;;;6.24;60.01;99640.28;5087947;28;20048;-72
2022/02/16 01:24:32;;;;;;;40.75;22.98;;;;;;;6.23;60.06;99628.09;5087446;28;20046;-73
2022/02/16 01:27:00;;;;;;;37.08;21.27;;;;;;;6.20;60.16;99621.28;5086230;28;20060;-76
2022/02/16 01:29:27;;;;;;;37.67;23.50;;;;;;;6.20;60.18;99613.41;5101101;28;20140;-74
2022/02/16 01:31:56;;;;;;;35.70;20.65;;;;;;;6.21;60.29;99609.88;5107391;28;20399;-70
2022/02/16 01:34:23;;;;;;;40.28;21.83;;;;;;;6.20;60.17;99608.16;5089227;28;20039;-71
2022/02/16 01:36:49;;;;;;;41.55;23.70;;;;;;;6.19;60.21;99609.09;5087887;28;20056;-77
2022/02/16 01:39:16;;;;;;;41.08;21.60;;;;;;;6.18;60.36;99603.97;5085480;28;20130;-72
2022/02/16 01:41:44;;;;;;;45.17;24.92;;;;;;;6.15;60.31;99597.13;5090839;28;20585;-72
2022/02/16 01:44:11;;;;;;;37.70;22.83;;;;;;;6.13;60.25;99597.22;5106491;28;20047;-72
2022/02/16 01:46:52;;;;;;;44.58;24.48;;;;;;;6.13;60.29;99593.78;5087546;28;20056;-73
2022/02/16 01:49:20;;;;;;;48.67;27.33;;;;;;;6.08;60.31;99591.44;5094296;28;20043;-71
2022/02/16 01:51:48;;;;;;;46.10;25.75;;;;;;;6.06;60.22;99593.31;5096940;28;20047;-72
2022/02/16 01:54:15;;;;;;;46.80;26.77;;;;;;;6.02;60.36;99591.84;5095219;28;20048;-72
2022/02/16 01:56:46;;;;;;;50.25;29.25;;;;;;;6.01;60.45;99594.56;5107638;28;20053;-72
2022/02/16 01:59:16;;;;;;;43.10;25.27;;;;;;;5.97;60.37;99588.66;5100264;28;20085;-73
2022/02/16 02:01:44;;;;;;;49.60;25.48;;;;;;;5.94;60.42;99596.69;5085489;28;20052;-72
2022/02/16 02:04:11;;;;;;;45.85;27.40;;;;;;;5.93;60.42;99592.41;5100415;28;20426;-73
2022/02/16 02:06:39;;;;;;;48.38;28.58;;;;;;;5.90;60.41;99590.81;5102652;28;20436;-73
2022/02/16 02:09:06;;;;;;;52.83;29.58;;;;;;;5.86;60.50;99593.72;5086336;28;20054;-73
2022/02/16 02:11:34;;;;;;;53.22;29.40;;;;;;;5.84;60.61;99588.59;5103457;28;20127;-73
2022/02/16 02:14:02;;;;;;;53.53;28.60;;;;;;;5.82;60.50;99582.59;5106070;28;20380;-71
2022/02/16 02:16:30;;;;;;;54.13;28.90;;;;;;;5.81;60.51;99590.56;5105216;28;20050;-71
2022/02/16 02:18:58;;;;;;;50.42;29.05;;;;;;;5.79;60.60;99582.78;5093155;28;20527;-72
2022/02/16 02:21:27;;;;;;;53.47;29.63;;;;;;;5.74;60.71;99590.09;5082495;28;20048;-72
2022/02/16 02:23:55;;;;;;;55.80;31.83;;;;;;;5.71;60.71;99583.28;5103484;28;20050;-73
2022/02/16 02:26:22;;;;;;;56.50;31.15;;;;;;;5.68;60.76;99585.25;5093121;28;20048;-70
2022/02/16 02:28:51;;;;;;;56.70;30.67;;;;;;;5.63;60.88;99575.06;5064182;28;20717;-72
2022/02/16 02:31:28;;;;;;;52.42;29.85;;;;;;;5.62;61.17;99569.91;5047463;28;20239;-73
2022/02/16 02:33:56;;;;;;;53.13;31.63;;;;;;;5.61;60.82;99557.75;5078632;28;20048;-71
2022/02/16 02:36:24;;;;;;;54.17;30.13;;;;;;;5.57;60.90;99562.34;5063567;28;20044;-72
2022/02/16 02:38:55;;;;;;;49.60;30.83;;;;;;;5.53;61.01;99553.84;5077021;28;20075;-71
2022/02/16 02:41:26;;;;;;;58.20;32.67;;;;;;;5.50;61.06;99551.41;5081957;28;20047;-69
2022/02/16 02:43:53;;;;;;;56.80;34.92;;;;;;;5.48;61.13;99541.97;5065396;28;20395;-71
2022/02/16 02:46:20;;;;;;;59.60;33.22;;;;;;;5.48;61.10;99555.91;5073496;28;20134;-71
2022/02/16 02:48:47;;;;;;;51.65;31.45;;;;;;;5.47;60.89;99545.53;5084064;28;20040;-71
2022/02/16 02:51:15;;;;;;;54.25;30.75;;;;;;;5.45;61.09;99552.63;5062153;28;20056;-71
2022/02/16 02:53:43;;;;;;;56.60;31.42;;;;;;;5.45;61.12;99553.47;5075124;28;20514;-72
2022/02/16 02:56:11;;;;;;;64.05;35.15;;;;;;;5.45;61.16;99555.25;5083877;28;20054;-69
2022/02/16 02:58:39;;;;;;;62.17;31.55;;;;;;;5.44;61.21;99551.81;5064593;28;20051;-70
2022/02/16 03:01:06;;;;;;;69.25;37.55;;;;;;;5.44;61.32;99546.56;5064346;28;20066;-72
2022/02/16 03:03:34;;;;;;;57.30;33.15;;;;;;;5.42;61.23;99548.44;5064511;28;20045;-70
2022/02/16 03:06:01;;;;;;;56.97;33.88;;;;;;;5.43;61.36;99550.13;5082803;28;20050;-71
2022/02/16 03:08:27;;;;;;;57.30;29.42;;;;;;;5.43;61.29;99544.88;5079910;28;20041;-71
2022/02/16 03:10:54;;;;;;;57.92;29.38;;;;;;;5.46;61.28;99544.69;5064414;28;20495;-71
2022/02/16 03:13:23;;;;;;;62.85;33.05;;;;;;;5.44;61.27;99536.09;5076821;28;20040;-73
2022/02/16 03:15:51;;;;;;;65.30;32.63;;;;;;;5.43;61.21;99534.41;5082333;28;20131;-73
2022/02/16 03:18:20;;;;;;;58.58;30.30;;;;;;;5.43;61.33;99523.91;5067183;28;20048;-73
2022/02/16 03:20:50;;;;;;;64.43;34.83;;;;;;;5.39;61.22;99526.84;5082498;28;20106;-72
2022/02/16 03:23:17;;;;;;;58.63;31.85;;;;;;;5.35;61.26;99523.59;5072720;28;20052;-73
2022/02/16 03:25:44;;;;;;;52.33;31.08;;;;;;;5.33;61.38;99528.91;5088137;28;20054;-72
2022/02/16 03:28:11;;;;;;;62.75;34.35;;;;;;;5.31;61.36;99525.56;5104629;28;20108;-73
2022/02/16 03:30:40;;;;;;;59.00;32.17;;;;;;;5.32;61.38;99529.00;5089785;28;20519;-73
2022/02/16 03:33:07;;;;;;;56.85;33.28;;;;;;;5.29;61.36;99529.19;5095985;28;20044;-73
2022/02/16 03:35:35;;;;;;;60.15;32.33;;;;;;;5.28;61.44;99522.28;5102251;28;20043;-72
2022/02/16 03:38:02;;;;;;;58.03;32.80;;;;;;;5.25;61.29;99522.47;5085288;28;20047;-72
2022/02/16 03:40:30;;;;;;;57.85;34.72;;;;;;;5.23;61.38;99527.78;5097772;28;20054;-73
2022/02/16 03:42:57;;;;;;;64.82;35.13;;;;;;;5.20;61.47;99527.13;5105189;28;20093;-73
2022/02/16 03:45:25;;;;;;;60.70;35.00;;;;;;;5.20;61.50;99532.38;5083731;28;20054;-71
2022/02/16 03:47:53;;;;;;;60.78;31.88;;;;;;;5.18;61.40;99527.22;5091447;28;20032;-71
2022/02/16 03:50:22;;;;;;;58.58;36.08;;;;;;;5.16;61.52;99526.47;5082523;28;20127;-71
2022/02/16 03:52:50;;;;;;;74.70;40.63;;;;;;;5.16;61.54;99526.47;5098204;28;20824;-72
2022/02/16 03:55:17;;;;;;;70.43;35.65;;;;;;;5.16;61.62;99527.31;5086316;28;20496;-72
2022/02/16 03:57:44;;;;;;;64.32;35.83;;;;;;;5.16;61.54;99535.16;5084425;28;20476;-73
2022/02/16 04:00:13;;;;;;;67.30;35.55;;;;;;;5.16;61.54;99524.69;5099573;28;20082;-74
2022/02/16 04:02:40;;;;;;;66.10;37.53;;;;;;;5.15;61.55;99525.66;5088493;28;20509;-74
2022/02/16 04:05:09;;;;;;;62.67;35.15;;;;;;;5.16;61.68;99514.22;5108131;28;20126;-73
2022/02/16 04:07:36;;;;;;;65.72;38.45;;;;;;;5.17;61.68;99515.94;5097049;28;20047;-72
2022/02/16 04:10:04;;;;;;;62.55;36.78;;;;;;;5.16;61.89;99519.47;5090410;28;20044;-71
2022/02/16 04:12:31;;;;;;;58.95;32.67;;;;;;;5.19;61.64;99517.63;5097380;28;20055;-71
2022/02/16 04:14:58;;;;;;;57.80;34.05;;;;;;;5.19;61.84;99520.25;5103421;28;20050;-72
2022/02/16 04:17:24;;;;;;;55.13;31.77;;;;;;;5.19;61.78;99515.00;5093869;28;20130;-72
2022/02/16 04:19:51;;;;;;;61.85;32.92;;;;;;;5.17;61.63;99508.06;5103034;28;20102;-71
2022/02/16 04:22:20;;;;;;;55.67;31.10;;;;;;;5.20;61.84;99506.19;5102898;28;20043;-73
2022/02/16 04:24:47;;;;;;;60.10;32.05;;;;;;;5.17;61.67;99496.78;5095558;28;20058;-71
2022/02/16 04:27:14;;;;;;;52.83;32.30;;;;;;;5.16;61.68;99500.31;5103086;28;20086;-72
2022/02/16 04:29:41;;;;;;;53.42;33.95;;;;;;;5.15;61.60;99489.00;5097392;28;20065;-72
2022/02/16 04:32:09;;;;;;;54.65;32.50;;;;;;;5.16;61.82;99479.38;5095954;28;20040;-71
2022/02/16 04:34:37;;;;;;;53.45;30.05;;;;;;;5.16;61.52;99481.97;5101650;28;20047;-73
2022/02/16 04:37:05;;;;;;;53.97;32.67;;;;;;;5.15;61.64;99483.78;5090830;28;20052;-72
2022/02/16 04:39:34;;;;;;;59.78;32.72;;;;;;;5.19;61.61;99491.44;5103372;28;20445;-71
2022/02/16 04:42:02;;;;;;;56.67;32.97;;;;;;;5.18;61.63;99490.56;5097341;28;20058;-71
2022/02/16 04:44:30;;;;;;;67.00;35.63;;;;;;;5.19;61.78;99487.03;5097688;28;20730;-71
2022/02/16 04:46:56;;;;;;;55.63;28.75;;;;;;;5.19;61.75;99479.19;5091331;28;20047;-74
2022/02/16 04:49:23;;;;;;;64.32;31.42;;;;;;;5.20;61.67;99474.78;5103049;27;20054;-74
2022/02/16 04:51:51;;;;;;;53.00;30.48;;;;;;;5.19;61.76;99475.72;5093830;28;20040;-72
2022/02/16 04:54:18;;;;;;;49.63;29.35;;;;;;;5.18;61.65;99474.88;5097025;28;20053;-72
2022/02/16 04:56:46;;;;;;;51.72;27.90;;;;;;;5.16;61.52;99467.09;5094312;28;20050;-72
2022/02/16 04:59:13;;;;;;;51.72;28.17;;;;;;;5.16;61.75;99463.66;5095927;28;20051;-74
2022/02/16 05:01:40;;;;;;;57.38;32.15;;;;;;;5.14;61.69;99458.50;5099598;28;20062;-72
2022/02/16 05:04:07;;;;;;;54.63;32.35;;;;;;;5.14;61.79;99460.31;5089926;28;20399;-73
2022/02/16 05:06:37;;;;;;;53.78;30.02;;;;;;;5.15;61.76;99454.16;5106903;28;20059;-71
2022/02/16 05:09:05;;;;;;;55.60;32.25;;;;;;;5.14;62.00;99461.13;5107706;28;20486;-75
2022/02/16 05:11:32;;;;;;;59.38;33.50;;;;;;;5.14;61.71;99461.13;5104593;28;20109;-71
2022/02/16 05:14:01;;;;;;;55.88;32.20;;;;;;;5.16;61.83;99455.81;5091055;28;20056;-73
2022/02/16 05:16:29;;;;;;;55.47;30.73;;;;;;;5.16;61.61;99448.78;5113927;27;20050;-69
2022/02/16 05:18:59;;;;;;;61.97;32.95;;;;;;;5.15;62.08;99444.50;5104723;28;20479;-74
2022/02/16 05:21:27;;;;;;;52.60;30.63;;;;;;;5.14;61.77;99437.56;5104555;27;20039;-74
2022/02/16 05:23:55;;;;;;;52.70;29.25;;;;;;;5.14;61.65;99440.19;5099492;27;20049;-73
2022/02/16 05:26:22;;;;;;;63.47;32.67;;;;;;;5.14;61.79;99432.34;5112034;27;20387;-73
2022/02/16 05:28:49;;;;;;;61.03;32.38;;;;;;;5.13;61.83;99433.28;5108584;27;20057;-73
2022/02/16 05:31:17;;;;;;;57.05;30.13;;;;;;;5.16;61.88;99433.06;5102370;28;20039;-72
2022/02/16 05:33:44;;;;;;;62.05;34.00;;;;;;;5.16;61.70;99429.63;5105937;28;20047;-73
2022/02/16 05:36:11;;;;;;;62.22;34.17;;;;;;;5.13;61.77;99435.91;5106351;28;20422;-72
2022/02/16 05:38:38;;;;;;;67.10;36.58;;;;;;;5.14;61.82;99434.97;5088765;28;20113;-71
2022/02/16 05:41:05;;;;;;;49.92;30.42;;;;;;;5.15;61.80;99426.19;5094052;28;20078;-73
2022/02/16 05:43:32;;;;;;;56.55;31.98;;;;;;;5.17;61.73;99429.53;5097265;28;20045;-73
2022/02/16 05:46:00;;;;;;;56.00;34.15;;;;;;;5.16;61.84;99421.78;5092656;28;20555;-71
2022/02/16 05:48:29;;;;;;;53.30;28.73;;;;;;;5.17;61.70;99420.84;5094434;28;20047;-70
2022/02/16 05:50:57;;;;;;;56.95;34.28;;;;;;;5.17;61.76;99416.44;5093268;28;20040;-73
2022/02/16 05:53:24;;;;;;;54.08;30.58;;;;;;;5.20;61.68;99417.19;5096028;28;20044;-74
2022/02/16 05:55:51;;;;;;;57.88;33.25;;;;;;;5.19;61.63;99413.75;5091827;28;20052;-82
2022/02/16 05:58:18;;;;;;;69.15;33.42;;;;;;;5.18;61.61;99409.44;5113060;27;20066;-76
2022/02/16 06:00:45;;;;;;;56.58;32.65;;;;;;;5.18;61.72;99409.44;5117564;27;20050;-75
2022/02/16 06:03:12;;;;;;;53.53;31.90;;;;;;;5.20;61.67;99406.72;5091169;27;20135;-72
2022/02/16 06:05:40;;;;;;;55.95;32.45;;;;;;;5.22;61.67;99415.31;5112510;27;20035;-73
2022/02/16 06:08:07;;;;;;;58.47;36.38;;;;;;;5.24;61.67;99408.19;5107936;27;20069;-74
2022/02/16 06:10:34;;;;;;;57.13;32.47;;;;;;;5.25;61.53;99405.47;5116406;27;20043;-72
2022/02/16 06:13:01;;;;;;;58.85;32.80;;;;;;;5.29;61.64;99400.88;5119501;27;20482;-74
2022/02/16 06:15:29;;;;;;;62.10;33.13;;;;;;;5.32;61.68;99395.47;5125181;27;20138;-74
2022/02/16 06:17:56;;;;;;;63.72;30.52;;;;;;;5.38;61.43;99394.22;5124267;27;20053;-71
2022/02/16 06:20:23;;;;;;;51.42;31.58;;;;;;;5.43;61.42;99398.22;5121420;27;20118;-70
2022/02/16 06:22:53;;;;;;;60.30;35.10;;;;;;;5.46;61.45;99400.66;5123099;27;20043;-67
2022/02/16 06:25:21;;;;;;;59.35;33.47;;;;;;;5.51;61.41;99389.84;5123742;27;20100;-70
2022/02/16 06:27:48;;;;;;;59.45;34.20;;;;;;;5.54;61.37;99390.50;5123539;27;20051;-68
2022/02/16 06:30:16;;;;;;;78.40;42.42;;;;;;;5.62;61.28;99391.75;5124013;27;20074;-70
2022/02/16 06:32:45;;;;;;;64.30;35.95;;;;;;;5.70;61.18;99386.88;5123654;27;20039;-70
2022/02/16 06:35:14;;;;;;;58.70;34.70;;;;;;;5.76;61.05;99381.22;5122792;27;20043;-69
2022/02/16 06:37:41;;;;;;;56.33;32.45;;;;;;;5.85;61.04;99371.91;5071810;27;20147;-69
2022/02/16 06:40:11;;;;;;;66.60;35.30;;;;;;;5.90;61.03;99373.28;5123520;27;20096;-68
2022/02/16 06:42:42;;;;;;;66.25;36.92;;;;;;;6.00;60.84;99370.09;5122651;27;20081;-68
2022/02/16 06:45:10;;;;;;;58.97;34.10;;;;;;;6.10;60.68;99361.50;5116989;27;20048;-68
2022/02/16 06:47:37;;;;;;;60.60;36.72;;;;;;;6.18;60.61;99363.59;5116372;27;20629;-70
2022/02/16 06:50:06;;;;;;;55.40;32.13;;;;;;;6.28;60.52;99356.78;5120644;28;20053;-67
2022/02/16 06:52:33;;;;;;;65.97;40.97;;;;;;;6.36;60.42;99353.59;5122318;28;20050;-68
2022/02/16 06:55:00;;;;;;;64.35;33.83;;;;;;;6.46;60.21;99343.31;5122254;28;20051;-67
2022/02/16 06:57:28;;;;;;;50.60;30.67;;;;;;;6.57;60.15;99345.16;5123464;28;20053;-70
2022/02/16 06:59:55;;;;;;;45.20;27.13;;;;;;;6.71;59.84;99345.03;5122565;28;20541;-68
2022/02/16 07:02:23;;;;;;;64.50;34.88;;;;;;;6.79;59.86;99339.22;5121964;28;20043;-68
2022/02/16 07:04:50;;;;;;;60.95;37.25;;;;;;;6.90;59.55;99347.19;5123468;28;20043;-67
2022/02/16 07:07:19;;;;;;;65.75;35.58;;;;;;;7.02;59.38;99341.06;5123072;28;20050;-69
2022/02/16 07:09:47;;;;;;;55.95;34.30;;;;;;;7.12;59.14;99338.59;5121551;28;20053;-67
2022/02/16 07:12:14;;;;;;;57.35;31.17;;;;;;;7.21;59.11;99334.47;5087330;28;20046;-70
2022/02/16 07:14:42;;;;;;;57.95;35.65;;;;;;;7.31;58.80;99335.47;5121608;28;20522;-69
2022/02/16 07:17:09;;;;;;;57.47;32.83;;;;;;;7.41;58.68;99338.25;5121108;28;20047;-66
2022/02/16 07:19:36;;;;;;;57.90;33.38;;;;;;;7.51;58.53;99336.63;5123904;28;20107;-67
2022/02/16 07:22:04;;;;;;;59.72;34.15;;;;;;;7.62;58.22;99335.81;5119443;28;20652;-66
2022/02/16 07:24:31;;;;;;;64.25;36.88;;;;;;;7.73;58.07;99338.47;5119387;28;20088;-68
2022/02/16 07:26:59;;;;;;;58.83;33.08;;;;;;;7.85;57.89;99334.94;5123082;28;20055;-67
2022/02/16 07:29:28;;;;;;;58.42;34.20;;;;;;;7.96;57.74;99339.38;5121688;28;20043;-67
2022/02/16 07:31:57;;;;;;;52.85;32.58;;;;;;;8.11;57.61;99334.72;5121721;28;20078;-69
2022/02/16 07:34:26;;;;;;;53.20;33.40;;;;;;;8.17;57.25;99326.34;5122478;28;20039;-67
2022/02/16 07:36:54;;;;;;;47.95;29.42;;;;;;;8.24;57.05;99327.53;5122473;27;20054;-68
2022/02/16 07:39:26;;;;;;;54.63;31.35;;;;;;;8.34;57.01;99317.16;5124318;27;20047;-68
2022/02/16 07:41:54;;;;;;;47.42;29.05;;;;;;;8.45;56.85;99320.78;5125563;27;20826;-68
2022/02/16 07:44:21;;;;;;;48.58;27.83;;;;;;;8.49;56.48;99314.31;5124011;27;20048;-69
2022/02/16 07:46:48;;;;;;;54.33;30.90;;;;;;;8.54;56.18;99307.72;5123957;27;20035;-69
2022/02/16 07:49:16;;;;;;;50.33;28.95;;;;;;;8.57;56.01;99302.22;5124437;27;20047;-68
2022/02/16 07:51:43;;;;;;;36.65;22.80;;;;;;;8.59;55.94;99310.00;5122380;27;20118;-67
2022/02/16 07:54:10;;;;;;;38.28;22.25;;;;;;;8.60;55.48;99301.13;5125190;27;20072;-68
2022/02/16 07:56:38;;;;;;;40.65;24.15;;;;;;;8.70;55.25;99301.25;5125049;27;20049;-68
2022/02/16 07:59:05;;;;;;;39.38;25.00;;;;;;;8.73;54.53;99301.84;5123060;27;20039;-69
2022/02/16 08:01:32;;;;;;;36.70;21.55;;;;;;;8.84;54.48;99298.34;5124348;27;20045;-67
2022/02/16 08:06:43;;;;;;;33.60;20.52;;;;;;;8.97;53.99;99308.72;5123305;27;20081;-68
2022/02/16 08:09:11;;;;;;;32.70;21.55;;;;;;;8.98;53.61;99305.97;5124148;27;20625;-69
2022/02/16 08:11:38;;;;;;;34.42;22.30;;;;;;;8.96;53.30;99302.59;5123950;27;20050;-68
2022/02/16 08:14:05;;;;;;;38.35;23.85;;;;;;;8.93;53.01;99300.22;5123610;27;20137;-68
2022/02/16 08:16:34;;;;;;;36.25;20.70;;;;;;;8.97;52.93;99296.38;5123694;27;20047;-66
2022/02/16 08:19:02;;;;;;;35.92;22.95;;;;;;;8.96;52.78;99302.59;5122630;27;20051;-69
2022/02/16 08:21:29;;;;;;;33.60;20.17;;;;;;;8.95;52.83;99293.03;5121723;27;20076;-68
2022/02/16 08:23:58;;;;;;;29.92;21.40;;;;;;;8.96;52.50;99286.78;5124297;27;20133;-67
2022/02/16 08:26:25;;;;;;;36.67;20.90;;;;;;;8.95;52.36;99290.41;5122868;27;20414;-68
2022/02/16 08:28:52;;;;;;;36.17;21.15;;;;;;;8.96;52.32;99288.59;5123385;27;20047;-69
2022/02/16 08:31:19;;;;;;;23.65;15.15;;;;;;;9.06;52.34;99289.53;5125407;27;20118;-70
2022/02/16 08:33:46;;;;;;;28.10;18.17;;;;;;;9.13;52.08;99287.25;5123043;27;20057;-69
2022/02/16 08:36:13;;;;;;;29.45;18.63;;;;;;;9.27;51.71;99270.28;5124409;27;20138;-71
2022/02/16 08:38:41;;;;;;;29.55;18.98;;;;;;;9.42;51.42;99268.16;5124173;27;20043;-69
2022/02/16 08:41:13;;;;;;;26.77;17.08;;;;;;;9.55;51.28;99260.91;5122835;27;20047;-66
2022/02/16 08:43:40;;;;;;;31.92;21.17;;;;;;;9.60;51.12;99269.28;5124357;27;20049;-67
2022/02/16 08:46:07;;;;;;;32.60;18.23;;;;;;;9.70;50.85;99270.13;5123706;27;20043;-69
2022/02/16 08:48:34;;;;;;;33.50;21.02;;;;;;;9.77;49.89;99254.66;5122251;27;20047;-67
2022/02/16 08:51:01;;;;;;;31.45;18.20;;;;;;;9.87;50.21;99260.81;5121091;27;20130;-67
2022/02/16 08:53:29;;;;;;;33.47;21.80;;;;;;;9.99;50.04;99247.53;5123041;27;20158;-68
2022/02/16 08:55:56;;;;;;;29.25;21.75;;;;;;;10.14;49.47;99257.59;5122797;27;20534;-70
2022/02/16 08:58:25;;;;;;;33.60;20.25;;;;;;;10.22;49.28;99237.63;5123447;27;20039;-67
2022/02/16 09:00:52;;;;;;;29.42;20.27;;;;;;;10.28;49.21;99226.53;5121698;27;20043;-69
2022/02/16 09:03:20;;;;;;;29.85;17.05;;;;;;;10.33;49.22;99227.00;5123160;27;20043;-72
2022/02/16 09:05:47;;;;;;;27.58;16.92;;;;;;;10.14;49.32;99225.13;5123334;27;20047;-70
2022/02/16 09:08:14;;;;;;;32.10;18.75;;;;;;;9.83;49.31;99217.22;5123047;27;20055;-71
2022/02/16 09:10:41;;;;;;;29.70;18.38;;;;;;;9.68;49.87;99226.44;5104959;27;20599;-71
2022/02/16 09:13:08;;;;;;;32.72;18.33;;;;;;;9.53;50.05;99220.66;5124106;27;20039;-69
2022/02/16 09:15:36;;;;;;;28.83;16.63;;;;;;;9.45;50.23;99223.09;5122862;27;20043;-69
2022/02/16 09:18:05;;;;;;;29.48;18.08;;;;;;;9.51;50.16;99222.59;5121605;27;20046;-71
2022/02/16 09:20:33;;;;;;;27.55;15.65;;;;;;;9.67;49.87;99212.41;5120455;27;20043;-68
2022/02/16 09:23:01;;;;;;;29.17;19.30;;;;;;;9.73;49.46;99211.88;5122953;27;20142;-71
2022/02/16 09:25:28;;;;;;;28.70;16.27;;;;;;;9.99;49.05;99194.78;5121758;27;20134;-70
2022/02/16 09:27:55;;;;;;;29.33;16.30;;;;;;;10.34;48.59;99197.00;5123663;27;20047;-70
2022/02/16 09:30:22;;;;;;;26.50;17.13;;;;;;;10.58;47.98;99193.16;5122206;27;20075;-70
2022/02/16 09:32:51;;;;;;;24.70;16.02;;;;;;;10.78;47.84;99176.31;5121576;27;20177;-71
2022/02/16 09:35:18;;;;;;;25.15;16.55;;;;;;;11.09;47.28;99179.66;5122171;27;20047;-68
2022/02/16 09:37:45;;;;;;;28.30;17.35;;;;;;;11.35;46.70;99172.94;5121472;27;20167;-70
2022/02/16 09:40:12;;;;;;;25.60;17.52;;;;;;;11.52;46.48;99180.13;5122108;27;20039;-70
2022/02/16 09:42:41;;;;;;;25.83;14.73;;;;;;;11.60;46.26;99167.03;5122323;27;20547;-69
2022/02/16 09:45:11;;;;;;;28.60;15.30;;;;;;;11.74;46.00;99170.16;5120837;27;20138;-71
2022/02/16 09:47:41;;;;;;;18.35;10.60;;;;;;;11.85;46.20;99151.47;5122093;27;20043;-68
2022/02/16 09:50:11;;;;;;;21.27;12.32;;;;;;;11.94;45.77;99145.34;5120995;27;20043;-70
2022/02/16 09:52:38;;;;;;;25.15;12.80;;;;;;;12.07;45.35;99144.97;5120819;27;20095;-68
2022/02/16 09:55:06;;;;;;;21.73;12.20;;;;;;;12.23;45.11;99142.50;5122291;27;20039;-68
2022/02/16 09:57:33;;;;;;;24.25;11.85;;;;;;;12.53;43.98;99142.31;5122535;27;20047;-70
2022/02/16 10:00:00;;;;;;;19.63;13.23;;;;;;;13.12;42.32;99138.16;5121830;27;20039;-68
2022/02/16 10:02:36;;;;;;;18.23;12.65;;;;;;;14.09;41.16;99122.91;5121707;27;20049;-70
2022/02/16 10:05:04;;;;;;;18.35;10.90;;;;;;;14.74;39.73;99120.56;5120835;27;20047;-69
2022/02/16 10:07:36;;;;;;;17.58;11.32;;;;;;;14.96;39.10;99117.22;5121554;27;20171;-68
2022/02/16 10:10:19;;;;;;;18.95;11.98;;;;;;;14.61;39.80;99110.44;5123540;27;20074;-70
2022/02/16 10:12:48;;;;;;;13.35;9.30;;;;;;;13.96;40.18;99103.97;5121699;27;20228;-71
2022/02/16 10:15:17;;;;;;;21.33;11.40;;;;;;;13.35;41.02;99105.84;5120491;27;20092;-69
2022/02/16 10:17:44;;;;;;;16.52;10.95;;;;;;;13.11;41.50;99094.09;5123791;27;20039;-70
2022/02/16 10:20:13;;;;;;;16.08;10.00;;;;;;;12.86;41.59;99090.44;5119809;27;20074;-70
2022/02/16 10:22:44;;;;;;;16.55;9.93;;;;;;;12.67;41.79;99086.13;5122573;27;20491;-67
2022/02/16 10:25:17;;;;;;;14.18;9.25;;;;;;;12.70;41.97;99079.72;5123476;27;20125;-68
2022/02/16 10:28:19;;;;;;;16.08;8.48;;;;;;;12.82;41.77;99063.41;5121549;27;20576;-67
2022/02/16 10:30:56;;;;;;;13.05;8.18;;;;;;;12.86;40.68;99063.94;5114620;27;20049;-71
2022/02/16 10:33:28;;;;;;;17.23;10.15;;;;;;;12.88;41.13;99058.50;5122676;27;20233;-70
2022/02/16 10:36:01;;;;;;;12.23;8.10;;;;;;;12.94;41.03;99048.06;5121946;27;20123;-69
2022/02/16 10:38:30;;;;;;;15.88;7.95;;;;;;;12.98;41.07;99040.66;5122771;27;20521;-74
2022/02/16 10:41:02;;;;;;;13.80;8.27;;;;;;;13.06;40.64;99045.19;5122658;27;20047;-68
2022/02/16 10:43:35;;;;;;;11.15;6.45;;;;;;;13.06;40.38;99032.75;5122820;27;20043;-68
2022/02/16 10:46:02;;;;;;;11.80;6.05;;;;;;;13.08;40.39;99019.34;5122474;27;20043;-68
2022/02/16 10:48:29;;;;;;;13.95;7.85;;;;;;;13.04;40.27;99018.81;5085235;27;20047;-70
2022/02/16 10:50:57;;;;;;;13.73;8.10;;;;;;;13.13;40.24;99015.22;5119205;27;20118;-71
2022/02/16 10:53:26;;;;;;;17.15;9.27;;;;;;;13.19;40.07;99005.81;5121222;28;20095;-70
2022/02/16 10:55:55;;;;;;;11.57;7.25;;;;;;;13.37;40.13;98993.31;5122265;28;20406;-70
2022/02/16 10:58:24;;;;;;;15.18;8.85;;;;;;;13.43;39.83;98989.19;5120133;28;20043;-69
2022/02/16 11:00:53;;;;;;;17.70;10.35;;;;;;;13.36;39.43;98990.81;5103383;28;20047;-71
2022/02/16 11:03:29;;;;;;;14.10;6.97;;;;;;;13.44;39.78;98972.28;5120963;28;20057;-69
2022/02/16 11:05:58;;;;;;;10.25;6.40;;;;;;;13.51;39.23;98977.78;5121839;28;20079;-68
2022/02/16 11:08:26;;;;;;;9.50;5.30;;;;;;;13.47;39.58;98955.22;5120556;28;20126;-71
2022/02/16 11:10:55;;;;;;;13.70;6.97;;;;;;;13.60;39.57;98957.44;5120379;28;20066;-67
2022/02/16 11:13:25;;;;;;;12.52;7.18;;;;;;;13.79;39.28;98943.84;5122509;27;20693;-69
2022/02/16 11:15:53;;;;;;;9.60;6.22;;;;;;;13.84;39.32;98941.53;5125806;27;20043;-70
2022/02/16 11:18:23;;;;;;;13.25;6.85;;;;;;;13.89;39.37;98941.88;5124340;27;20047;-70
2022/02/16 11:21:15;;;;;;;11.40;7.30;;;;;;;14.00;39.31;98946.03;5123383;27;20774;-69
2022/02/16 11:23:44;;;;;;;12.75;6.93;;;;;;;13.90;38.97;98935.56;5042376;28;20052;-69
2022/02/16 11:26:41;;;;;;;11.60;6.57;;;;;;;13.81;39.19;98927.75;5040857;28;20608;-67
2022/02/16 11:29:31;;;;;;;12.80;8.18;;;;;;;13.77;38.90;98935.22;4984711;28;20060;-69
2022/02/16 11:32:22;;;;;;;12.57;6.60;;;;;;;13.87;38.99;98906.69;4981516;28;20054;-68